sensor_id;sensor_type;location;lat;lon;timestamp;pressure;altitude;pressure_sealevel;temperature;humidity
76216;BME280;65010;50.190;18.930;2023-04-15T00:00:19;96995.31;;;11.54;57.70
76216;BME280;65010;50.190;18.930;2023-04-15T00:03:26;97006.09;;;11.45;57.82
76216;BME280;65010;50.190;18.930;2023-04-15T00:06:36;97005.56;;;11.37;58.01
76216;BME280;65010;50.190;18.930;2023-04-15T00:09:43;97004.75;;;11.36;58.26
76216;BME280;65010;50.190;18.930;2023-04-15T00:12:49;97002.78;;;11.25;58.42
76216;BME280;65010;50.190;18.930;2023-04-15T00:15:55;97015.53;;;11.21;58.69
76216;BME280;65010;50.190;18.930;2023-04-15T00:19:01;97008.69;;;11.20;58.46
76216;BME280;65010;50.190;18.930;2023-04-15T00:22:10;97025.47;;;11.19;58.45
76216;BME280;65010;50.190;18.930;2023-04-15T00:25:16;97016.56;;;11.14;58.13
76216;BME280;65010;50.190;18.930;2023-04-15T00:28:23;97025.69;;;11.11;57.94
76216;BME280;65010;50.190;18.930;2023-04-15T00:31:30;97024.09;;;11.10;57.36
76216;BME280;65010;50.190;18.930;2023-04-15T00:34:37;97029.50;;;11.15;57.83
76216;BME280;65010;50.190;18.930;2023-04-15T00:37:45;97040.00;;;11.22;57.07
76216;BME280;65010;50.190;18.930;2023-04-15T00:40:52;97048.28;;;11.32;56.65
76216;BME280;65010;50.190;18.930;2023-04-15T00:43:58;97051.28;;;11.36;55.99
76216;BME280;65010;50.190;18.930;2023-04-15T00:47:04;97045.84;;;11.31;55.35
76216;BME280;65010;50.190;18.930;2023-04-15T00:50:11;97049.50;;;11.29;55.62
76216;BME280;65010;50.190;18.930;2023-04-15T00:53:21;97049.75;;;11.15;54.58
76216;BME280;65010;50.190;18.930;2023-04-15T00:56:28;97058.47;;;11.02;55.02
76216;BME280;65010;50.190;18.930;2023-04-15T00:59:36;97057.94;;;10.86;56.21
76216;BME280;65010;50.190;18.930;2023-04-15T01:02:41;97061.03;;;10.70;57.40
76216;BME280;65010;50.190;18.930;2023-04-15T01:05:48;97060.03;;;10.51;58.28
76216;BME280;65010;50.190;18.930;2023-04-15T01:09:02;97055.19;;;10.48;57.75
76216;BME280;65010;50.190;18.930;2023-04-15T01:12:12;97048.72;;;10.51;57.27
76216;BME280;65010;50.190;18.930;2023-04-15T01:15:19;97057.59;;;10.63;56.96
76216;BME280;65010;50.190;18.930;2023-04-15T01:18:26;97039.56;;;10.73;56.77
76216;BME280;65010;50.190;18.930;2023-04-15T01:21:35;97060.19;;;10.76;55.88
76216;BME280;65010;50.190;18.930;2023-04-15T01:24:53;97059.38;;;10.76;55.67
76216;BME280;65010;50.190;18.930;2023-04-15T01:28:07;97054.50;;;10.79;55.20
76216;BME280;65010;50.190;18.930;2023-04-15T01:31:14;97049.69;;;10.69;54.70
76216;BME280;65010;50.190;18.930;2023-04-15T01:34:20;97050.94;;;10.54;52.46
76216;BME280;65010;50.190;18.930;2023-04-15T01:37:29;97058.44;;;10.37;52.51
76216;BME280;65010;50.190;18.930;2023-04-15T01:40:35;97059.47;;;10.22;52.34
76216;BME280;65010;50.190;18.930;2023-04-15T01:43:45;97048.97;;;10.16;53.03
76216;BME280;65010;50.190;18.930;2023-04-15T01:46:51;97060.06;;;10.31;54.58
76216;BME280;65010;50.190;18.930;2023-04-15T01:49:57;97066.50;;;10.48;55.37
76216;BME280;65010;50.190;18.930;2023-04-15T01:53:03;97060.63;;;10.60;55.54
76216;BME280;65010;50.190;18.930;2023-04-15T01:56:10;97073.34;;;10.76;55.58
76216;BME280;65010;50.190;18.930;2023-04-15T01:59:20;97081.00;;;10.78;55.88
76216;BME280;65010;50.190;18.930;2023-04-15T02:02:27;97079.97;;;10.85;55.37
76216;BME280;65010;50.190;18.930;2023-04-15T02:05:33;97086.88;;;10.80;54.15
76216;BME280;65010;50.190;18.930;2023-04-15T02:08:40;97085.03;;;10.74;53.71
76216;BME280;65010;50.190;18.930;2023-04-15T02:11:46;97083.03;;;10.69;53.04
76216;BME280;65010;50.190;18.930;2023-04-15T02:14:55;97093.97;;;10.66;52.49
76216;BME280;65010;50.190;18.930;2023-04-15T02:18:03;97092.78;;;10.62;52.31
76216;BME280;65010;50.190;18.930;2023-04-15T02:21:11;97101.66;;;10.61;51.76
76216;BME280;65010;50.190;18.930;2023-04-15T02:24:16;97102.06;;;10.58;51.47
76216;BME280;65010;50.190;18.930;2023-04-15T02:27:23;97108.94;;;10.59;51.16
76216;BME280;65010;50.190;18.930;2023-04-15T02:30:33;97105.09;;;10.68;51.47
76216;BME280;65010;50.190;18.930;2023-04-15T02:33:39;97104.66;;;10.71;51.23
76216;BME280;65010;50.190;18.930;2023-04-15T02:36:46;97102.84;;;10.72;51.13
76216;BME280;65010;50.190;18.930;2023-04-15T02:39:56;97120.03;;;10.67;50.98
76216;BME280;65010;50.190;18.930;2023-04-15T02:43:03;97125.31;;;10.54;50.98
76216;BME280;65010;50.190;18.930;2023-04-15T02:46:12;97120.44;;;10.51;50.37
76216;BME280;65010;50.190;18.930;2023-04-15T02:49:19;97115.41;;;10.43;50.62
76216;BME280;65010;50.190;18.930;2023-04-15T02:52:24;97122.47;;;10.29;50.21
76216;BME280;65010;50.190;18.930;2023-04-15T02:55:31;97128.53;;;10.09;51.02
76216;BME280;65010;50.190;18.930;2023-04-15T02:58:37;97122.47;;;10.09;51.24
76216;BME280;65010;50.190;18.930;2023-04-15T03:01:47;97133.97;;;10.08;50.52
76216;BME280;65010;50.190;18.930;2023-04-15T03:04:54;97135.16;;;9.99;51.10
76216;BME280;65010;50.190;18.930;2023-04-15T03:08:00;97139.44;;;10.00;50.90
76216;BME280;65010;50.190;18.930;2023-04-15T03:11:06;97138.41;;;9.94;50.87
76216;BME280;65010;50.190;18.930;2023-04-15T03:14:13;97147.31;;;10.00;51.38
76216;BME280;65010;50.190;18.930;2023-04-15T03:17:26;97143.47;;;10.09;51.92
76216;BME280;65010;50.190;18.930;2023-04-15T03:20:34;97150.75;;;10.20;51.73
76216;BME280;65010;50.190;18.930;2023-04-15T03:23:39;97150.16;;;10.32;51.46
76216;BME280;65010;50.190;18.930;2023-04-15T03:26:47;97144.91;;;10.32;51.27
76216;BME280;65010;50.190;18.930;2023-04-15T03:29:53;97156.41;;;10.31;50.56
76216;BME280;65010;50.190;18.930;2023-04-15T03:33:04;97154.19;;;10.21;50.55
76216;BME280;65010;50.190;18.930;2023-04-15T03:36:11;97154.19;;;10.07;50.98
76216;BME280;65010;50.190;18.930;2023-04-15T03:39:18;97165.88;;;9.98;50.90
76216;BME280;65010;50.190;18.930;2023-04-15T03:42:23;97166.44;;;9.87;50.99
76216;BME280;65010;50.190;18.930;2023-04-15T03:45:30;97162.38;;;9.78;51.06
76216;BME280;65010;50.190;18.930;2023-04-15T03:48:38;97166.75;;;9.70;51.21
76216;BME280;65010;50.190;18.930;2023-04-15T03:51:45;97175.06;;;9.74;51.49
76216;BME280;65010;50.190;18.930;2023-04-15T03:54:50;97178.75;;;9.80;51.55
76216;BME280;65010;50.190;18.930;2023-04-15T03:57:57;97181.38;;;9.86;52.01
76216;BME280;65010;50.190;18.930;2023-04-15T04:01:03;97191.69;;;9.88;52.65
76216;BME280;65010;50.190;18.930;2023-04-15T04:04:12;97195.72;;;9.91;52.04
76216;BME280;65010;50.190;18.930;2023-04-15T04:07:18;97195.09;;;9.82;51.71
76216;BME280;65010;50.190;18.930;2023-04-15T04:10:25;97195.63;;;9.70;52.36
76216;BME280;65010;50.190;18.930;2023-04-15T04:13:31;97192.63;;;9.74;52.54
76216;BME280;65010;50.190;18.930;2023-04-15T04:16:37;97190.41;;;9.77;52.24
76216;BME280;65010;50.190;18.930;2023-04-15T04:19:46;97187.16;;;9.68;52.54
76216;BME280;65010;50.190;18.930;2023-04-15T04:22:52;97189.56;;;9.63;52.75
76216;BME280;65010;50.190;18.930;2023-04-15T04:25:58;97180.47;;;9.59;53.24
76216;BME280;65010;50.190;18.930;2023-04-15T04:29:04;97185.06;;;9.50;53.46
76216;BME280;65010;50.190;18.930;2023-04-15T04:32:10;97190.91;;;9.46;53.81
76216;BME280;65010;50.190;18.930;2023-04-15T04:35:19;97183.03;;;9.46;53.81
76216;BME280;65010;50.190;18.930;2023-04-15T04:38:25;97195.94;;;9.47;53.69
76216;BME280;65010;50.190;18.930;2023-04-15T04:41:31;97207.47;;;9.53;53.23
76216;BME280;65010;50.190;18.930;2023-04-15T04:44:37;97203.63;;;9.49;53.56
76216;BME280;65010;50.190;18.930;2023-04-15T04:47:44;97208.63;;;9.44;54.11
76216;BME280;65010;50.190;18.930;2023-04-15T04:50:53;97209.69;;;9.49;53.65
76216;BME280;65010;50.190;18.930;2023-04-15T04:54:00;97213.75;;;9.59;53.54
76216;BME280;65010;50.190;18.930;2023-04-15T04:57:05;97218.81;;;9.67;53.53
76216;BME280;65010;50.190;18.930;2023-04-15T05:00:13;97214.41;;;9.74;53.22
76216;BME280;65010;50.190;18.930;2023-04-15T05:03:18;97219.72;;;9.81;53.28
76216;BME280;65010;50.190;18.930;2023-04-15T05:06:28;97214.69;;;9.86;53.91
76216;BME280;65010;50.190;18.930;2023-04-15T05:09:34;97222.81;;;9.98;54.49
76216;BME280;65010;50.190;18.930;2023-04-15T05:12:41;97226.84;;;10.07;54.42
76216;BME280;65010;50.190;18.930;2023-04-15T05:15:46;97224.28;;;10.14;54.19
76216;BME280;65010;50.190;18.930;2023-04-15T05:18:53;97233.75;;;10.21;53.81
76216;BME280;65010;50.190;18.930;2023-04-15T05:22:01;97231.75;;;10.23;53.90
76216;BME280;65010;50.190;18.930;2023-04-15T05:25:08;97219.25;;;10.25;53.72
76216;BME280;65010;50.190;18.930;2023-04-15T05:28:14;97223.91;;;10.37;54.05
76216;BME280;65010;50.190;18.930;2023-04-15T05:31:20;97227.75;;;10.41;53.89
76216;BME280;65010;50.190;18.930;2023-04-15T05:34:26;97227.97;;;10.46;54.42
76216;BME280;65010;50.190;18.930;2023-04-15T05:37:35;97231.19;;;10.55;54.17
76216;BME280;65010;50.190;18.930;2023-04-15T05:40:40;97229.16;;;10.63;53.67
76216;BME280;65010;50.190;18.930;2023-04-15T05:43:47;97230.19;;;10.56;53.97
76216;BME280;65010;50.190;18.930;2023-04-15T05:46:53;97226.97;;;10.60;53.84
76216;BME280;65010;50.190;18.930;2023-04-15T05:50:00;97236.25;;;10.56;54.13
76216;BME280;65010;50.190;18.930;2023-04-15T05:53:08;97233.25;;;10.66;54.00
76216;BME280;65010;50.190;18.930;2023-04-15T05:56:14;97238.69;;;10.71;53.85
76216;BME280;65010;50.190;18.930;2023-04-15T05:59:21;97246.59;;;10.78;53.69
76216;BME280;65010;50.190;18.930;2023-04-15T06:02:28;97251.66;;;10.86;53.77
76216;BME280;65010;50.190;18.930;2023-04-15T06:05:34;97261.53;;;10.97;53.36
76216;BME280;65010;50.190;18.930;2023-04-15T06:08:43;97265.59;;;11.06;53.11
76216;BME280;65010;50.190;18.930;2023-04-15T06:11:48;97266.59;;;11.12;52.87
76216;BME280;65010;50.190;18.930;2023-04-15T06:14:56;97264.34;;;11.16;53.03
76216;BME280;65010;50.190;18.930;2023-04-15T06:18:02;97260.72;;;11.17;52.26
76216;BME280;65010;50.190;18.930;2023-04-15T06:21:09;97270.63;;;11.28;52.73
76216;BME280;65010;50.190;18.930;2023-04-15T06:24:17;97270.00;;;11.39;52.69
76216;BME280;65010;50.190;18.930;2023-04-15T06:27:24;97277.91;;;11.53;52.07
76216;BME280;65010;50.190;18.930;2023-04-15T06:30:29;97274.00;;;11.62;51.22
76216;BME280;65010;50.190;18.930;2023-04-15T06:33:36;97276.47;;;11.57;50.24
76216;BME280;65010;50.190;18.930;2023-04-15T06:36:41;97279.28;;;11.62;50.47
76216;BME280;65010;50.190;18.930;2023-04-15T06:39:51;97284.31;;;11.70;50.17
76216;BME280;65010;50.190;18.930;2023-04-15T06:42:57;97278.00;;;11.84;49.50
76216;BME280;65010;50.190;18.930;2023-04-15T06:46:03;97280.00;;;11.89;48.45
76216;BME280;65010;50.190;18.930;2023-04-15T06:49:09;97286.41;;;12.06;47.92
76216;BME280;65010;50.190;18.930;2023-04-15T06:52:16;97273.28;;;12.38;48.19
76216;BME280;65010;50.190;18.930;2023-04-15T06:55:25;97282.00;;;12.77;47.26
76216;BME280;65010;50.190;18.930;2023-04-15T06:58:31;97284.69;;;13.21;46.17
76216;BME280;65010;50.190;18.930;2023-04-15T07:01:37;97285.47;;;13.46;44.07
76216;BME280;65010;50.190;18.930;2023-04-15T07:04:44;97288.72;;;13.85;43.97
76216;BME280;65010;50.190;18.930;2023-04-15T07:07:50;97290.72;;;14.08;41.64
76216;BME280;65010;50.190;18.930;2023-04-15T07:10:59;97288.66;;;14.11;42.87
76216;BME280;65010;50.190;18.930;2023-04-15T07:14:05;97298.56;;;14.45;43.18
76216;BME280;65010;50.190;18.930;2023-04-15T07:17:11;97290.34;;;14.96;40.64
76216;BME280;65010;50.190;18.930;2023-04-15T07:20:17;97290.03;;;15.63;40.04
76216;BME280;65010;50.190;18.930;2023-04-15T07:23:23;97299.19;;;16.07;38.94
76216;BME280;65010;50.190;18.930;2023-04-15T07:26:32;97292.34;;;16.52;37.80
76216;BME280;65010;50.190;18.930;2023-04-15T07:29:38;97287.19;;;16.91;36.04
76216;BME280;65010;50.190;18.930;2023-04-15T07:32:44;97283.09;;;17.00;35.12
76216;BME280;65010;50.190;18.930;2023-04-15T07:35:50;97291.75;;;17.30;35.19
76216;BME280;65010;50.190;18.930;2023-04-15T07:38:56;97280.78;;;17.77;33.86
76216;BME280;65010;50.190;18.930;2023-04-15T07:42:07;97277.00;;;18.17;32.37
76216;BME280;65010;50.190;18.930;2023-04-15T07:45:13;97281.59;;;18.76;33.40
76216;BME280;65010;50.190;18.930;2023-04-15T07:48:19;97282.56;;;19.29;32.85
76216;BME280;65010;50.190;18.930;2023-04-15T07:51:25;97287.19;;;19.92;30.11
76216;BME280;65010;50.190;18.930;2023-04-15T07:54:34;97281.84;;;20.60;29.37
76216;BME280;65010;50.190;18.930;2023-04-15T07:57:42;97279.19;;;21.27;29.35
76216;BME280;65010;50.190;18.930;2023-04-15T08:00:49;97275.59;;;21.93;27.91
76216;BME280;65010;50.190;18.930;2023-04-15T08:03:56;97278.47;;;22.56;25.76
76216;BME280;65010;50.190;18.930;2023-04-15T08:07:05;97277.28;;;22.73;25.69
76216;BME280;65010;50.190;18.930;2023-04-15T08:10:10;97286.88;;;22.84;25.11
76216;BME280;65010;50.190;18.930;2023-04-15T08:13:19;97296.13;;;22.97;24.52
76216;BME280;65010;50.190;18.930;2023-04-15T08:16:25;97291.50;;;23.13;23.57
76216;BME280;65010;50.190;18.930;2023-04-15T08:19:33;97283.66;;;22.82;23.73
76216;BME280;65010;50.190;18.930;2023-04-15T08:22:40;97287.69;;;23.19;23.55
76216;BME280;65010;50.190;18.930;2023-04-15T08:25:46;97280.03;;;23.60;23.35
76216;BME280;65010;50.190;18.930;2023-04-15T08:28:55;97286.56;;;23.78;23.53
76216;BME280;65010;50.190;18.930;2023-04-15T08:32:03;97284.16;;;23.82;22.34
76216;BME280;65010;50.190;18.930;2023-04-15T08:35:09;97274.94;;;24.31;22.17
76216;BME280;65010;50.190;18.930;2023-04-15T08:38:16;97275.47;;;24.52;22.54
76216;BME280;65010;50.190;18.930;2023-04-15T08:41:24;97266.03;;;25.39;21.74
76216;BME280;65010;50.190;18.930;2023-04-15T08:44:36;97275.25;;;25.94;21.48
76216;BME280;65010;50.190;18.930;2023-04-15T08:47:44;97276.59;;;25.50;20.33
76216;BME280;65010;50.190;18.930;2023-04-15T08:51:00;97287.53;;;25.39;21.52
76216;BME280;65010;50.190;18.930;2023-04-15T08:54:07;97289.84;;;25.46;21.46
76216;BME280;65010;50.190;18.930;2023-04-15T08:57:15;97288.22;;;25.12;21.00
76216;BME280;65010;50.190;18.930;2023-04-15T09:00:24;97282.38;;;25.43;21.74
76216;BME280;65010;50.190;18.930;2023-04-15T09:03:32;97280.91;;;25.78;21.56
76216;BME280;65010;50.190;18.930;2023-04-15T09:06:40;97284.50;;;26.15;22.02
76216;BME280;65010;50.190;18.930;2023-04-15T09:09:47;97281.50;;;26.67;20.72
76216;BME280;65010;50.190;18.930;2023-04-15T09:12:53;97280.63;;;27.48;20.25
76216;BME280;65010;50.190;18.930;2023-04-15T09:16:04;97278.00;;;28.14;18.46
76216;BME280;65010;50.190;18.930;2023-04-15T09:19:19;97279.31;;;28.61;17.16
76216;BME280;65010;50.190;18.930;2023-04-15T09:22:31;97279.81;;;28.98;18.06
76216;BME280;65010;50.190;18.930;2023-04-15T09:25:39;97280.63;;;28.89;16.89
76216;BME280;65010;50.190;18.930;2023-04-15T09:28:47;97270.41;;;29.21;18.07
76216;BME280;65010;50.190;18.930;2023-04-15T09:31:55;97276.75;;;29.72;17.89
76216;BME280;65010;50.190;18.930;2023-04-15T09:35:10;97270.22;;;30.12;15.75
76216;BME280;65010;50.190;18.930;2023-04-15T09:38:16;97287.59;;;29.72;15.89
76216;BME280;65010;50.190;18.930;2023-04-15T09:41:23;97286.16;;;29.10;17.10
76216;BME280;65010;50.190;18.930;2023-04-15T09:44:29;97277.16;;;29.53;17.27
76216;BME280;65010;50.190;18.930;2023-04-15T09:47:38;97278.44;;;29.94;16.16
76216;BME280;65010;50.190;18.930;2023-04-15T09:50:44;97279.72;;;29.88;15.65
76216;BME280;65010;50.190;18.930;2023-04-15T09:53:54;97283.69;;;29.52;16.43
76216;BME280;65010;50.190;18.930;2023-04-15T09:57:05;97292.22;;;29.07;17.13
76216;BME280;65010;50.190;18.930;2023-04-15T10:00:13;97283.16;;;28.60;16.86
76216;BME280;65010;50.190;18.930;2023-04-15T10:03:23;97284.81;;;28.03;18.71
76216;BME280;65010;50.190;18.930;2023-04-15T10:06:32;97279.31;;;28.26;16.85
76216;BME280;65010;50.190;18.930;2023-04-15T10:09:39;97276.63;;;28.34;17.07
76216;BME280;65010;50.190;18.930;2023-04-15T10:12:53;97277.41;;;28.52;16.33
76216;BME280;65010;50.190;18.930;2023-04-15T10:16:04;97271.06;;;29.09;16.72
76216;BME280;65010;50.190;18.930;2023-04-15T10:19:18;97266.16;;;29.97;16.64
76216;BME280;65010;50.190;18.930;2023-04-15T10:22:31;97266.75;;;31.08;16.46
76216;BME280;65010;50.190;18.930;2023-04-15T10:25:38;97267.59;;;31.79;15.42
76216;BME280;65010;50.190;18.930;2023-04-15T10:28:45;97265.63;;;31.91;14.07
76216;BME280;65010;50.190;18.930;2023-04-15T10:31:53;97266.56;;;31.83;15.27
76216;BME280;65010;50.190;18.930;2023-04-15T10:35:04;97259.94;;;32.34;15.05
76216;BME280;65010;50.190;18.930;2023-04-15T10:38:31;97263.31;;;32.43;13.23
76216;BME280;65010;50.190;18.930;2023-04-15T10:41:37;97260.25;;;32.44;14.89
76216;BME280;65010;50.190;18.930;2023-04-15T10:44:48;97255.47;;;32.54;15.00
76216;BME280;65010;50.190;18.930;2023-04-15T10:47:56;97257.50;;;32.85;13.97
76216;BME280;65010;50.190;18.930;2023-04-15T10:51:08;97256.78;;;32.31;14.12
76216;BME280;65010;50.190;18.930;2023-04-15T10:54:31;97268.31;;;30.76;14.74
76216;BME280;65010;50.190;18.930;2023-04-15T10:57:42;97283.03;;;28.82;15.82
76216;BME280;65010;50.190;18.930;2023-04-15T11:00:50;97276.41;;;28.05;18.59
76216;BME280;65010;50.190;18.930;2023-04-15T11:03:58;97269.47;;;28.21;18.51
76216;BME280;65010;50.190;18.930;2023-04-15T11:07:07;97268.34;;;28.48;17.22
76216;BME280;65010;50.190;18.930;2023-04-15T11:13:58;97271.28;;;26.55;17.42
76216;BME280;65010;50.190;18.930;2023-04-15T11:17:05;97274.50;;;25.74;18.72
76216;BME280;65010;50.190;18.930;2023-04-15T11:20:14;97276.19;;;25.29;20.48
76216;BME280;65010;50.190;18.930;2023-04-15T11:23:30;97279.03;;;24.99;19.52
76216;BME280;65010;50.190;18.930;2023-04-15T11:26:38;97290.00;;;24.51;20.64
76216;BME280;65010;50.190;18.930;2023-04-15T11:29:44;97286.34;;;23.99;21.28
76216;BME280;65010;50.190;18.930;2023-04-15T11:32:52;97289.38;;;23.05;21.90
76216;BME280;65010;50.190;18.930;2023-04-15T11:36:00;97289.41;;;22.15;22.81
76216;BME280;65010;50.190;18.930;2023-04-15T11:39:08;97294.88;;;21.85;23.55
76216;BME280;65010;50.190;18.930;2023-04-15T11:42:16;97292.53;;;21.32;23.87
76216;BME280;65010;50.190;18.930;2023-04-15T11:45:22;97284.22;;;20.72;24.81
76216;BME280;65010;50.190;18.930;2023-04-15T11:48:31;97302.38;;;20.70;25.52
76216;BME280;65010;50.190;18.930;2023-04-15T11:51:38;97305.84;;;20.60;25.04
76216;BME280;65010;50.190;18.930;2023-04-15T11:54:47;97310.91;;;19.88;24.62
76216;BME280;65010;50.190;18.930;2023-04-15T11:58:06;97301.44;;;19.65;28.07
76216;BME280;65010;50.190;18.930;2023-04-15T12:01:17;97310.13;;;19.88;25.91
76216;BME280;65010;50.190;18.930;2023-04-15T12:04:23;97300.88;;;20.06;25.77
76216;BME280;65010;50.190;18.930;2023-04-15T12:07:30;97301.13;;;20.09;26.15
76216;BME280;65010;50.190;18.930;2023-04-15T12:10:38;97297.75;;;20.29;26.03
76216;BME280;65010;50.190;18.930;2023-04-15T12:13:46;97305.59;;;20.67;26.22
76216;BME280;65010;50.190;18.930;2023-04-15T12:16:54;97302.16;;;20.92;25.45
76216;BME280;65010;50.190;18.930;2023-04-15T12:20:04;97305.91;;;21.21;24.20
76216;BME280;65010;50.190;18.930;2023-04-15T12:23:11;97298.38;;;21.65;24.61
76216;BME280;65010;50.190;18.930;2023-04-15T12:26:25;97300.94;;;22.00;24.31
76216;BME280;65010;50.190;18.930;2023-04-15T12:29:34;97302.59;;;21.91;23.08
76216;BME280;65010;50.190;18.930;2023-04-15T12:32:41;97301.59;;;21.77;23.48
76216;BME280;65010;50.190;18.930;2023-04-15T12:35:47;97299.41;;;21.89;23.80
76216;BME280;65010;50.190;18.930;2023-04-15T12:38:53;97305.56;;;21.79;23.51
76216;BME280;65010;50.190;18.930;2023-04-15T12:42:11;97308.06;;;21.35;23.64
76216;BME280;65010;50.190;18.930;2023-04-15T12:45:18;97307.78;;;21.11;22.92
76216;BME280;65010;50.190;18.930;2023-04-15T12:48:24;97302.97;;;21.18;23.86
76216;BME280;65010;50.190;18.930;2023-04-15T12:51:30;97296.53;;;21.45;23.68
76216;BME280;65010;50.190;18.930;2023-04-15T12:54:36;97293.81;;;21.80;23.30
76216;BME280;65010;50.190;18.930;2023-04-15T12:57:47;97301.28;;;22.49;23.77
76216;BME280;65010;50.190;18.930;2023-04-15T13:00:52;97295.03;;;23.37;23.20
76216;BME280;65010;50.190;18.930;2023-04-15T13:03:59;97292.69;;;24.08;19.61
76216;BME280;65010;50.190;18.930;2023-04-15T13:07:06;97284.09;;;24.30;19.87
76216;BME280;65010;50.190;18.930;2023-04-15T13:10:15;97294.84;;;24.49;21.70
76216;BME280;65010;50.190;18.930;2023-04-15T13:13:24;97293.53;;;24.47;20.74
76216;BME280;65010;50.190;18.930;2023-04-15T13:16:32;97303.28;;;24.18;19.57
76216;BME280;65010;50.190;18.930;2023-04-15T13:19:38;97296.94;;;23.61;20.15
76216;BME280;65010;50.190;18.930;2023-04-15T13:22:45;97302.75;;;23.44;21.06
76216;BME280;65010;50.190;18.930;2023-04-15T13:25:53;97298.03;;;23.60;20.16
76216;BME280;65010;50.190;18.930;2023-04-15T13:29:03;97299.13;;;24.07;19.37
76216;BME280;65010;50.190;18.930;2023-04-15T13:32:08;97295.16;;;24.24;20.11
76216;BME280;65010;50.190;18.930;2023-04-15T13:35:15;97297.44;;;24.92;19.87
76216;BME280;65010;50.190;18.930;2023-04-15T13:38:22;97295.09;;;25.24;19.54
76216;BME280;65010;50.190;18.930;2023-04-15T13:41:29;97302.06;;;25.38;19.26
76216;BME280;65010;50.190;18.930;2023-04-15T13:44:38;97291.16;;;25.16;19.93
76216;BME280;65010;50.190;18.930;2023-04-15T13:47:45;97305.84;;;25.05;21.10
76216;BME280;65010;50.190;18.930;2023-04-15T13:50:50;97305.91;;;24.67;20.16
76216;BME280;65010;50.190;18.930;2023-04-15T13:53:57;97306.91;;;23.85;21.22
76216;BME280;65010;50.190;18.930;2023-04-15T13:57:04;97309.25;;;22.98;21.53
76216;BME280;65010;50.190;18.930;2023-04-15T14:00:13;97315.38;;;22.10;21.33
76216;BME280;65010;50.190;18.930;2023-04-15T14:03:20;97323.00;;;21.56;22.68
76216;BME280;65010;50.190;18.930;2023-04-15T14:06:27;97318.47;;;21.36;23.52
76216;BME280;65010;50.190;18.930;2023-04-15T14:09:34;97325.91;;;20.88;24.75
76216;BME280;65010;50.190;18.930;2023-04-15T14:12:45;97321.72;;;20.14;25.90
76216;BME280;65010;50.190;18.930;2023-04-15T14:15:53;97320.19;;;19.75;26.29
76216;BME280;65010;50.190;18.930;2023-04-15T14:19:01;97332.28;;;19.51;27.72
76216;BME280;65010;50.190;18.930;2023-04-15T14:22:08;97335.91;;;19.34;27.81
76216;BME280;65010;50.190;18.930;2023-04-15T14:25:14;97341.34;;;19.17;28.75
76216;BME280;65010;50.190;18.930;2023-04-15T14:28:34;97340.56;;;19.22;29.08
76216;BME280;65010;50.190;18.930;2023-04-15T14:31:44;97338.97;;;19.21;30.13
76216;BME280;65010;50.190;18.930;2023-04-15T14:35:11;97340.03;;;19.20;28.96
76216;BME280;65010;50.190;18.930;2023-04-15T14:38:17;97340.66;;;19.32;28.89
76216;BME280;65010;50.190;18.930;2023-04-15T14:41:23;97348.34;;;19.29;28.78
76216;BME280;65010;50.190;18.930;2023-04-15T14:44:30;97345.94;;;19.27;28.85
76216;BME280;65010;50.190;18.930;2023-04-15T14:47:38;97349.09;;;19.19;29.47
76216;BME280;65010;50.190;18.930;2023-04-15T14:50:45;97350.63;;;19.15;29.26
76216;BME280;65010;50.190;18.930;2023-04-15T14:53:51;97358.56;;;19.10;28.88
76216;BME280;65010;50.190;18.930;2023-04-15T14:56:57;97354.72;;;18.95;29.24
76216;BME280;65010;50.190;18.930;2023-04-15T15:00:04;97357.00;;;18.81;29.83
76216;BME280;65010;50.190;18.930;2023-04-15T15:03:16;97364.69;;;18.56;29.37
76216;BME280;65010;50.190;18.930;2023-04-15T15:06:22;97364.75;;;18.39;29.73
76216;BME280;65010;50.190;18.930;2023-04-15T15:09:30;97364.88;;;18.27;29.76
76216;BME280;65010;50.190;18.930;2023-04-15T15:12:36;97370.97;;;18.05;29.72
76216;BME280;65010;50.190;18.930;2023-04-15T15:15:42;97376.03;;;17.85;30.17
76216;BME280;65010;50.190;18.930;2023-04-15T15:18:53;97385.00;;;17.62;29.79
76216;BME280;65010;50.190;18.930;2023-04-15T15:22:00;97388.34;;;17.40;30.46
76216;BME280;65010;50.190;18.930;2023-04-15T15:25:07;97394.28;;;17.31;31.43
76216;BME280;65010;50.190;18.930;2023-04-15T15:28:13;97388.53;;;17.34;31.29
76216;BME280;65010;50.190;18.930;2023-04-15T15:31:19;97400.63;;;17.30;31.74
76216;BME280;65010;50.190;18.930;2023-04-15T15:34:28;97412.63;;;16.86;32.29
76216;BME280;65010;50.190;18.930;2023-04-15T15:37:36;97411.38;;;16.37;34.08
76216;BME280;65010;50.190;18.930;2023-04-15T15:40:43;97409.00;;;16.00;34.43
76216;BME280;65010;50.190;18.930;2023-04-15T15:43:48;97410.72;;;15.82;35.46
76216;BME280;65010;50.190;18.930;2023-04-15T15:46:55;97404.19;;;15.73;35.53
76216;BME280;65010;50.190;18.930;2023-04-15T15:50:04;97419.88;;;15.44;36.14
76216;BME280;65010;50.190;18.930;2023-04-15T15:53:13;97427.28;;;15.12;36.59
76216;BME280;65010;50.190;18.930;2023-04-15T15:56:22;97433.34;;;15.01;37.36
76216;BME280;65010;50.190;18.930;2023-04-15T15:59:29;97422.63;;;14.96;37.99
76216;BME280;65010;50.190;18.930;2023-04-15T16:02:35;97436.22;;;14.99;38.86
76216;BME280;65010;50.190;18.930;2023-04-15T16:05:48;97441.59;;;14.56;50.93
76216;BME280;65010;50.190;18.930;2023-04-15T16:08:54;97436.03;;;14.08;51.58
76216;BME280;65010;50.190;18.930;2023-04-15T16:12:00;97435.41;;;13.88;51.78
76216;BME280;65010;50.190;18.930;2023-04-15T16:15:08;97440.81;;;13.75;50.86
76216;BME280;65010;50.190;18.930;2023-04-15T16:18:15;97438.84;;;13.63;48.23
76216;BME280;65010;50.190;18.930;2023-04-15T16:21:23;97435.59;;;13.61;48.91
76216;BME280;65010;50.190;18.930;2023-04-15T16:24:31;97433.16;;;13.66;47.78